sensor_id;sensor_type;location;lat;lon;timestamp;P1;durP1;ratioP1;P2;durP2;ratioP2
61009;SDS011;46897;55.340;86.082;2023-04-03T05:09:17;8.60;;;2.43;;
61009;SDS011;46897;55.340;86.082;2023-04-03T05:11:47;7.95;;;2.50;;
61009;SDS011;46897;55.340;86.082;2023-04-03T05:14:16;19.52;;;2.85;;
61009;SDS011;46897;55.340;86.082;2023-04-03T05:16:45;10.55;;;3.65;;
61009;SDS011;46897;55.340;86.082;2023-04-03T05:19:17;10.57;;;2.53;;
61009;SDS011;46897;55.340;86.082;2023-04-03T05:21:47;8.73;;;2.58;;
61009;SDS011;46897;55.340;86.082;2023-04-03T05:27:52;17.42;;;3.08;;
61009;SDS011;46897;55.340;86.082;2023-04-03T05:30:21;11.25;;;2.60;;
61009;SDS011;46897;55.340;86.082;2023-04-03T05:32:51;10.18;;;3.85;;
61009;SDS011;46897;55.340;86.082;2023-04-03T05:35:20;12.88;;;4.20;;
61009;SDS011;46897;55.340;86.082;2023-04-03T05:37:49;7.30;;;2.30;;
61009;SDS011;46897;55.340;86.082;2023-04-03T05:40:19;12.07;;;2.45;;
61009;SDS011;46897;55.340;86.082;2023-04-03T05:42:48;6.85;;;2.70;;
61009;SDS011;46897;55.340;86.082;2023-04-03T05:48:06;13.15;;;3.83;;
61009;SDS011;46897;55.340;86.082;2023-04-03T05:50:35;13.93;;;3.78;;
61009;SDS011;46897;55.340;86.082;2023-04-03T05:56:11;14.65;;;2.38;;
61009;SDS011;46897;55.340;86.082;2023-04-03T05:58:40;28.90;;;3.58;;
61009;SDS011;46897;55.340;86.082;2023-04-03T06:01:11;6.32;;;2.38;;
61009;SDS011;46897;55.340;86.082;2023-04-03T06:03:40;13.07;;;2.75;;
61009;SDS011;46897;55.340;86.082;2023-04-03T06:06:12;10.75;;;2.75;;
61009;SDS011;46897;55.340;86.082;2023-04-03T06:08:42;10.38;;;3.58;;
61009;SDS011;46897;55.340;86.082;2023-04-03T06:11:13;11.55;;;2.60;;
61009;SDS011;46897;55.340;86.082;2023-04-03T06:13:42;11.38;;;2.83;;
61009;SDS011;46897;55.340;86.082;2023-04-03T06:16:18;7.07;;;2.35;;
61009;SDS011;46897;55.340;86.082;2023-04-03T06:21:16;7.70;;;2.42;;
61009;SDS011;46897;55.340;86.082;2023-04-03T06:23:45;12.30;;;2.80;;
61009;SDS011;46897;55.340;86.082;2023-04-03T06:26:33;13.77;;;2.80;;
61009;SDS011;46897;55.340;86.082;2023-04-03T06:29:20;10.07;;;2.47;;
61009;SDS011;46897;55.340;86.082;2023-04-03T06:32:08;13.85;;;2.70;;
61009;SDS011;46897;55.340;86.082;2023-04-03T06:34:38;12.90;;;3.20;;
61009;SDS011;46897;55.340;86.082;2023-04-03T06:37:24;7.70;;;2.88;;
61009;SDS011;46897;55.340;86.082;2023-04-03T06:39:55;12.63;;;2.95;;
61009;SDS011;46897;55.340;86.082;2023-04-03T06:42:24;12.35;;;2.63;;
61009;SDS011;46897;55.340;86.082;2023-04-03T06:44:54;10.18;;;2.33;;
61009;SDS011;46897;55.340;86.082;2023-04-03T06:47:42;5.18;;;2.17;;
61009;SDS011;46897;55.340;86.082;2023-04-03T06:50:12;22.73;;;3.40;;
61009;SDS011;46897;55.340;86.082;2023-04-03T06:52:42;9.30;;;2.47;;
61009;SDS011;46897;55.340;86.082;2023-04-03T06:55:11;5.15;;;1.80;;
61009;SDS011;46897;55.340;86.082;2023-04-03T06:57:40;6.05;;;2.30;;
61009;SDS011;46897;55.340;86.082;2023-04-03T07:00:10;8.75;;;2.42;;
61009;SDS011;46897;55.340;86.082;2023-04-03T07:02:40;8.80;;;2.50;;
61009;SDS011;46897;55.340;86.082;2023-04-03T07:05:11;6.70;;;1.90;;
61009;SDS011;46897;55.340;86.082;2023-04-03T07:07:40;8.85;;;2.78;;
61009;SDS011;46897;55.340;86.082;2023-04-03T07:10:09;15.23;;;2.10;;
61009;SDS011;46897;55.340;86.082;2023-04-03T07:12:39;14.80;;;2.22;;
61009;SDS011;46897;55.340;86.082;2023-04-03T07:15:08;5.93;;;1.90;;
61009;SDS011;46897;55.340;86.082;2023-04-03T07:17:39;9.50;;;1.88;;
61009;SDS011;46897;55.340;86.082;2023-04-03T07:20:08;5.22;;;2.40;;
61009;SDS011;46897;55.340;86.082;2023-04-03T07:22:40;7.35;;;1.98;;
61009;SDS011;46897;55.340;86.082;2023-04-03T07:25:09;5.15;;;2.22;;
61009;SDS011;46897;55.340;86.082;2023-04-03T07:27:40;12.43;;;3.30;;
61009;SDS011;46897;55.340;86.082;2023-04-03T07:30:09;6.43;;;2.97;;
61009;SDS011;46897;55.340;86.082;2023-04-03T07:32:41;8.55;;;3.30;;
61009;SDS011;46897;55.340;86.082;2023-04-03T07:35:28;9.98;;;3.22;;
61009;SDS011;46897;55.340;86.082;2023-04-03T07:37:57;7.05;;;2.50;;
61009;SDS011;46897;55.340;86.082;2023-04-03T07:40:27;9.40;;;3.17;;
61009;SDS011;46897;55.340;86.082;2023-04-03T07:42:56;11.55;;;2.75;;
61009;SDS011;46897;55.340;86.082;2023-04-03T07:45:26;5.45;;;2.08;;
61009;SDS011;46897;55.340;86.082;2023-04-03T07:47:55;5.90;;;2.85;;
61009;SDS011;46897;55.340;86.082;2023-04-03T07:50:25;8.60;;;2.60;;
61009;SDS011;46897;55.340;86.082;2023-04-03T07:52:56;16.60;;;3.45;;
61009;SDS011;46897;55.340;86.082;2023-04-03T07:55:25;6.68;;;2.47;;
61009;SDS011;46897;55.340;86.082;2023-04-03T07:57:54;7.43;;;2.67;;
61009;SDS011;46897;55.340;86.082;2023-04-03T08:00:23;5.82;;;2.70;;
61009;SDS011;46897;55.340;86.082;2023-04-03T08:02:53;6.05;;;2.55;;
61009;SDS011;46897;55.340;86.082;2023-04-03T08:05:23;5.13;;;1.90;;
61009;SDS011;46897;55.340;86.082;2023-04-03T08:07:52;8.98;;;2.40;;
61009;SDS011;46897;55.340;86.082;2023-04-03T08:10:22;8.57;;;1.73;;
61009;SDS011;46897;55.340;86.082;2023-04-03T08:12:52;7.00;;;1.90;;
61009;SDS011;46897;55.340;86.082;2023-04-03T08:15:21;7.90;;;2.35;;
61009;SDS011;46897;55.340;86.082;2023-04-03T08:17:50;4.93;;;1.98;;
61009;SDS011;46897;55.340;86.082;2023-04-03T08:20:19;9.25;;;2.33;;
61009;SDS011;46897;55.340;86.082;2023-04-03T08:23:06;9.95;;;2.30;;
61009;SDS011;46897;55.340;86.082;2023-04-03T08:25:38;6.82;;;2.40;;
61009;SDS011;46897;55.340;86.082;2023-04-03T08:28:09;6.30;;;2.50;;
61009;SDS011;46897;55.340;86.082;2023-04-03T08:30:56;7.20;;;2.30;;
61009;SDS011;46897;55.340;86.082;2023-04-03T08:36:20;7.68;;;1.95;;
61009;SDS011;46897;55.340;86.082;2023-04-03T08:39:08;9.13;;;2.20;;
61009;SDS011;46897;55.340;86.082;2023-04-03T08:41:39;5.60;;;1.63;;
61009;SDS011;46897;55.340;86.082;2023-04-03T08:44:14;4.85;;;2.10;;
61009;SDS011;46897;55.340;86.082;2023-04-03T08:49:42;5.93;;;1.70;;
61009;SDS011;46897;55.340;86.082;2023-04-03T08:52:15;7.70;;;2.33;;
61009;SDS011;46897;55.340;86.082;2023-04-03T08:54:50;5.72;;;2.15;;
61009;SDS011;46897;55.340;86.082;2023-04-03T08:57:28;9.55;;;3.33;;
61009;SDS011;46897;55.340;86.082;2023-04-03T09:00:00;6.65;;;3.22;;
61009;SDS011;46897;55.340;86.082;2023-04-03T09:02:35;5.82;;;2.25;;
61009;SDS011;46897;55.340;86.082;2023-04-03T09:05:14;12.13;;;2.38;;
61009;SDS011;46897;55.340;86.082;2023-04-03T09:07:46;10.80;;;2.67;;
61009;SDS011;46897;55.340;86.082;2023-04-03T09:10:23;10.38;;;2.38;;
61009;SDS011;46897;55.340;86.082;2023-04-03T09:13:01;7.20;;;1.65;;
61009;SDS011;46897;55.340;86.082;2023-04-03T09:15:35;5.05;;;1.80;;
61009;SDS011;46897;55.340;86.082;2023-04-03T09:18:23;6.88;;;1.80;;
61009;SDS011;46897;55.340;86.082;2023-04-03T09:20:58;4.80;;;2.30;;
61009;SDS011;46897;55.340;86.082;2023-04-03T09:23:38;5.40;;;2.03;;
61009;SDS011;46897;55.340;86.082;2023-04-03T09:26:28;10.60;;;2.50;;
61009;SDS011;46897;55.340;86.082;2023-04-03T09:29:02;6.15;;;2.22;;
61009;SDS011;46897;55.340;86.082;2023-04-03T09:31:36;6.90;;;2.42;;
61009;SDS011;46897;55.340;86.082;2023-04-03T09:34:10;7.50;;;2.90;;
61009;SDS011;46897;55.340;86.082;2023-04-03T09:40:04;5.80;;;2.30;;
61009;SDS011;46897;55.340;86.082;2023-04-03T09:42:55;5.78;;;1.98;;
61009;SDS011;46897;55.340;86.082;2023-04-03T09:45:29;5.90;;;2.50;;
61009;SDS011;46897;55.340;86.082;2023-04-03T09:48:07;9.93;;;2.13;;
61009;SDS011;46897;55.340;86.082;2023-04-03T09:50:52;13.20;;;5.78;;
61009;SDS011;46897;55.340;86.082;2023-04-03T09:53:32;5.60;;;1.83;;
61009;SDS011;46897;55.340;86.082;2023-04-03T09:56:21;7.03;;;2.50;;
61009;SDS011;46897;55.340;86.082;2023-04-03T09:59:06;9.52;;;2.63;;
61009;SDS011;46897;55.340;86.082;2023-04-03T10:01:55;8.57;;;2.65;;
61009;SDS011;46897;55.340;86.082;2023-04-03T10:04:28;12.27;;;2.75;;
61009;SDS011;46897;55.340;86.082;2023-04-03T10:07:26;6.28;;;1.92;;
61009;SDS011;46897;55.340;86.082;2023-04-03T10:09:58;17.42;;;3.30;;
61009;SDS011;46897;55.340;86.082;2023-04-03T10:12:30;6.20;;;2.05;;
61009;SDS011;46897;55.340;86.082;2023-04-03T10:15:17;7.72;;;2.45;;
61009;SDS011;46897;55.340;86.082;2023-04-03T10:17:56;7.97;;;2.65;;
61009;SDS011;46897;55.340;86.082;2023-04-03T10:20:49;15.93;;;3.63;;
61009;SDS011;46897;55.340;86.082;2023-04-03T10:23:21;4.03;;;1.70;;
61009;SDS011;46897;55.340;86.082;2023-04-03T10:25:59;6.88;;;2.20;;
61009;SDS011;46897;55.340;86.082;2023-04-03T10:28:41;6.80;;;1.75;;
61009;SDS011;46897;55.340;86.082;2023-04-03T10:31:16;4.13;;;1.90;;
61009;SDS011;46897;55.340;86.082;2023-04-03T10:36:34;7.53;;;2.95;;
61009;SDS011;46897;55.340;86.082;2023-04-03T10:39:17;5.78;;;2.35;;
61009;SDS011;46897;55.340;86.082;2023-04-03T10:41:57;6.30;;;1.92;;
61009;SDS011;46897;55.340;86.082;2023-04-03T10:44:52;9.50;;;2.22;;
61009;SDS011;46897;55.340;86.082;2023-04-03T10:47:37;4.15;;;1.92;;
61009;SDS011;46897;55.340;86.082;2023-04-03T10:50:21;3.85;;;2.10;;
61009;SDS011;46897;55.340;86.082;2023-04-03T10:53:11;8.15;;;2.00;;
61009;SDS011;46897;55.340;86.082;2023-04-03T10:55:49;4.53;;;2.33;;
61009;SDS011;46897;55.340;86.082;2023-04-03T10:58:25;6.18;;;2.42;;
61009;SDS011;46897;55.340;86.082;2023-04-03T11:01:01;5.45;;;2.05;;
61009;SDS011;46897;55.340;86.082;2023-04-03T11:03:49;7.35;;;2.05;;
61009;SDS011;46897;55.340;86.082;2023-04-03T11:06:24;6.80;;;1.55;;
61009;SDS011;46897;55.340;86.082;2023-04-03T11:09:16;4.88;;;1.70;;
61009;SDS011;46897;55.340;86.082;2023-04-03T11:11:51;7.85;;;2.28;;
61009;SDS011;46897;55.340;86.082;2023-04-03T11:14:25;6.72;;;1.98;;
61009;SDS011;46897;55.340;86.082;2023-04-03T11:17:01;11.35;;;2.00;;
61009;SDS011;46897;55.340;86.082;2023-04-03T11:19:35;6.82;;;2.05;;
61009;SDS011;46897;55.340;86.082;2023-04-03T11:22:27;5.53;;;1.90;;
61009;SDS011;46897;55.340;86.082;2023-04-03T11:27:50;7.93;;;2.30;;
61009;SDS011;46897;55.340;86.082;2023-04-03T11:30:23;4.35;;;1.30;;
61009;SDS011;46897;55.340;86.082;2023-04-03T11:33:00;5.25;;;1.98;;
61009;SDS011;46897;55.340;86.082;2023-04-03T11:35:37;4.78;;;2.15;;
61009;SDS011;46897;55.340;86.082;2023-04-03T11:38:17;9.43;;;2.65;;
61009;SDS011;46897;55.340;86.082;2023-04-03T11:40:50;9.23;;;2.08;;
61009;SDS011;46897;55.340;86.082;2023-04-03T11:43:23;5.95;;;2.03;;
61009;SDS011;46897;55.340;86.082;2023-04-03T11:45:56;4.10;;;1.63;;
61009;SDS011;46897;55.340;86.082;2023-04-03T11:51:39;5.18;;;1.67;;
61009;SDS011;46897;55.340;86.082;2023-04-03T12:12:58;27.05;;;6.80;;
61009;SDS011;46897;55.340;86.082;2023-04-03T12:21:51;28.77;;;7.50;;
61009;SDS011;46897;55.340;86.082;2023-04-03T12:24:37;25.38;;;7.78;;
61009;SDS011;46897;55.340;86.082;2023-04-03T12:30:03;26.35;;;8.77;;
61009;SDS011;46897;55.340;86.082;2023-04-03T12:33:02;34.33;;;10.77;;
61009;SDS011;46897;55.340;86.082;2023-04-03T12:35:44;30.02;;;9.60;;
61009;SDS011;46897;55.340;86.082;2023-04-03T12:38:34;27.38;;;9.45;;
61009;SDS011;46897;55.340;86.082;2023-04-03T12:41:18;25.88;;;10.10;;
61009;SDS011;46897;55.340;86.082;2023-04-03T12:44:01;42.25;;;13.13;;
61009;SDS011;46897;55.340;86.082;2023-04-03T12:46:53;35.13;;;11.20;;
61009;SDS011;46897;55.340;86.082;2023-04-03T12:49:29;36.50;;;12.52;;
61009;SDS011;46897;55.340;86.082;2023-04-03T12:52:14;46.45;;;13.88;;
61009;SDS011;46897;55.340;86.082;2023-04-03T12:54:48;52.35;;;18.45;;
61009;SDS011;46897;55.340;86.082;2023-04-03T12:57:37;53.15;;;17.15;;
61009;SDS011;46897;55.340;86.082;2023-04-03T13:00:20;52.83;;;16.33;;
61009;SDS011;46897;55.340;86.082;2023-04-03T13:03:01;54.42;;;17.02;;
61009;SDS011;46897;55.340;86.082;2023-04-03T13:05:33;48.45;;;15.77;;
61009;SDS011;46897;55.340;86.082;2023-04-03T13:10:53;45.97;;;14.18;;
61009;SDS011;46897;55.340;86.082;2023-04-03T13:13:25;50.53;;;14.20;;
61009;SDS011;46897;55.340;86.082;2023-04-03T13:15:56;43.75;;;13.48;;
61009;SDS011;46897;55.340;86.082;2023-04-03T13:21:35;60.45;;;15.25;;
61009;SDS011;46897;55.340;86.082;2023-04-03T13:24:05;45.58;;;13.95;;
61009;SDS011;46897;55.340;86.082;2023-04-03T13:26:41;42.17;;;13.40;;
61009;SDS011;46897;55.340;86.082;2023-04-03T13:29:18;51.85;;;13.02;;
61009;SDS011;46897;55.340;86.082;2023-04-03T13:32:14;40.40;;;12.27;;
61009;SDS011;46897;55.340;86.082;2023-04-03T13:34:48;40.47;;;11.43;;
61009;SDS011;46897;55.340;86.082;2023-04-03T13:37:21;37.72;;;10.90;;
61009;SDS011;46897;55.340;86.082;2023-04-03T13:39:58;47.60;;;12.13;;
61009;SDS011;46897;55.340;86.082;2023-04-03T13:42:30;35.55;;;10.65;;
61009;SDS011;46897;55.340;86.082;2023-04-03T13:47:52;42.78;;;12.57;;
61009;SDS011;46897;55.340;86.082;2023-04-03T13:53:28;44.38;;;12.23;;
61009;SDS011;46897;55.340;86.082;2023-04-03T13:56:04;36.35;;;12.32;;
61009;SDS011;46897;55.340;86.082;2023-04-03T13:58:36;31.38;;;10.85;;
61009;SDS011;46897;55.340;86.082;2023-04-03T14:01:10;35.92;;;11.75;;
61009;SDS011;46897;55.340;86.082;2023-04-03T14:03:51;30.92;;;10.98;;
61009;SDS011;46897;55.340;86.082;2023-04-03T14:06:22;34.60;;;12.73;;
61009;SDS011;46897;55.340;86.082;2023-04-03T14:09:09;39.42;;;12.25;;
61009;SDS011;46897;55.340;86.082;2023-04-03T14:11:38;36.33;;;13.05;;
61009;SDS011;46897;55.340;86.082;2023-04-03T14:14:11;55.47;;;14.77;;
61009;SDS011;46897;55.340;86.082;2023-04-03T14:16:44;52.13;;;14.40;;
61009;SDS011;46897;55.340;86.082;2023-04-03T14:19:18;53.08;;;14.73;;
61009;SDS011;46897;55.340;86.082;2023-04-03T14:21:52;48.72;;;15.45;;
61009;SDS011;46897;55.340;86.082;2023-04-03T14:24:22;51.40;;;14.07;;
61009;SDS011;46897;55.340;86.082;2023-04-03T14:26:52;49.75;;;13.57;;
61009;SDS011;46897;55.340;86.082;2023-04-03T14:29:23;43.20;;;13.38;;
61009;SDS011;46897;55.340;86.082;2023-04-03T14:32:10;42.28;;;12.73;;
61009;SDS011;46897;55.340;86.082;2023-04-03T14:34:59;39.92;;;13.82;;
61009;SDS011;46897;55.340;86.082;2023-04-03T14:37:46;51.78;;;15.52;;
61009;SDS011;46897;55.340;86.082;2023-04-03T14:40:17;43.22;;;15.88;;
61009;SDS011;46897;55.340;86.082;2023-04-03T14:42:49;48.42;;;16.08;;
61009;SDS011;46897;55.340;86.082;2023-04-03T14:45:18;62.40;;;21.55;;
61009;SDS011;46897;55.340;86.082;2023-04-03T14:48:06;60.47;;;22.35;;
61009;SDS011;46897;55.340;86.082;2023-04-03T14:50:42;62.20;;;22.17;;
61009;SDS011;46897;55.340;86.082;2023-04-03T14:53:30;56.47;;;19.65;;
61009;SDS011;46897;55.340;86.082;2023-04-03T14:56:04;55.47;;;17.15;;
61009;SDS011;46897;55.340;86.082;2023-04-03T14:58:39;49.90;;;16.55;;
61009;SDS011;46897;55.340;86.082;2023-04-03T15:01:09;49.53;;;16.90;;
61009;SDS011;46897;55.340;86.082;2023-04-03T15:03:41;46.47;;;13.98;;
61009;SDS011;46897;55.340;86.082;2023-04-03T15:06:12;56.25;;;18.13;;
61009;SDS011;46897;55.340;86.082;2023-04-03T15:08:42;57.45;;;17.30;;
61009;SDS011;46897;55.340;86.082;2023-04-03T15:11:13;57.25;;;17.42;;
61009;SDS011;46897;55.340;86.082;2023-04-03T15:16:30;51.70;;;14.65;;
61009;SDS011;46897;55.340;86.082;2023-04-03T15:18:59;58.50;;;18.17;;
61009;SDS011;46897;55.340;86.082;2023-04-03T15:21:30;50.67;;;15.73;;
61009;SDS011;46897;55.340;86.082;2023-04-03T15:23:59;67.65;;;20.10;;
61009;SDS011;46897;55.340;86.082;2023-04-03T15:26:29;54.38;;;15.77;;
61009;SDS011;46897;55.340;86.082;2023-04-03T15:28:58;67.80;;;19.15;;
61009;SDS011;46897;55.340;86.082;2023-04-03T15:31:27;58.85;;;17.80;;
61009;SDS011;46897;55.340;86.082;2023-04-03T15:33:56;89.70;;;24.92;;
61009;SDS011;46897;55.340;86.082;2023-04-03T15:36:46;56.22;;;19.23;;
61009;SDS011;46897;55.340;86.082;2023-04-03T15:39:16;44.83;;;14.93;;
61009;SDS011;46897;55.340;86.082;2023-04-03T15:41:45;57.55;;;18.27;;
61009;SDS011;46897;55.340;86.082;2023-04-03T15:44:14;52.95;;;17.13;;
61009;SDS011;46897;55.340;86.082;2023-04-03T15:47:00;79.63;;;25.58;;
61009;SDS011;46897;55.340;86.082;2023-04-03T15:49:48;56.33;;;16.92;;
61009;SDS011;46897;55.340;86.082;2023-04-03T15:52:20;68.65;;;21.85;;
61009;SDS011;46897;55.340;86.082;2023-04-03T15:54:49;70.32;;;20.83;;
61009;SDS011;46897;55.340;86.082;2023-04-03T15:57:19;61.75;;;18.23;;
61009;SDS011;46897;55.340;86.082;2023-04-03T15:59:55;56.35;;;17.02;;
61009;SDS011;46897;55.340;86.082;2023-04-03T16:02:24;48.35;;;15.00;;
61009;SDS011;46897;55.340;86.082;2023-04-03T16:05:12;51.97;;;15.48;;
61009;SDS011;46897;55.340;86.082;2023-04-03T16:07:45;43.72;;;14.23;;
61009;SDS011;46897;55.340;86.082;2023-04-03T16:10:15;63.78;;;17.30;;
61009;SDS011;46897;55.340;86.082;2023-04-03T16:15:34;31.25;;;8.48;;
61009;SDS011;46897;55.340;86.082;2023-04-03T16:18:04;32.53;;;11.05;;
61009;SDS011;46897;55.340;86.082;2023-04-03T16:23:32;41.30;;;11.68;;
61009;SDS011;46897;55.340;86.082;2023-04-03T16:26:01;45.70;;;12.55;;
61009;SDS011;46897;55.340;86.082;2023-04-03T16:28:49;47.60;;;13.10;;
61009;SDS011;46897;55.340;86.082;2023-04-03T16:31:18;45.50;;;13.70;;
61009;SDS011;46897;55.340;86.082;2023-04-03T16:33:48;38.42;;;11.73;;
61009;SDS011;46897;55.340;86.082;2023-04-03T16:36:17;37.63;;;10.55;;
61009;SDS011;46897;55.340;86.082;2023-04-03T16:38:48;32.78;;;10.90;;
61009;SDS011;46897;55.340;86.082;2023-04-03T16:41:17;33.45;;;10.52;;
61009;SDS011;46897;55.340;86.082;2023-04-03T16:43:46;38.42;;;10.43;;
61009;SDS011;46897;55.340;86.082;2023-04-03T16:46:17;33.95;;;10.73;;
61009;SDS011;46897;55.340;86.082;2023-04-03T16:48:46;35.13;;;10.77;;
61009;SDS011;46897;55.340;86.082;2023-04-03T16:51:32;31.60;;;8.95;;
61009;SDS011;46897;55.340;86.082;2023-04-03T16:54:03;35.88;;;9.38;;
61009;SDS011;46897;55.340;86.082;2023-04-03T16:56:33;25.05;;;8.18;;
61009;SDS011;46897;55.340;86.082;2023-04-03T16:59:02;27.08;;;7.07;;
61009;SDS011;46897;55.340;86.082;2023-04-03T17:01:31;26.83;;;7.78;;
61009;SDS011;46897;55.340;86.082;2023-04-03T17:07:25;34.25;;;11.20;;
61009;SDS011;46897;55.340;86.082;2023-04-03T17:09:57;39.33;;;10.30;;
61009;SDS011;46897;55.340;86.082;2023-04-03T17:12:26;48.83;;;13.50;;
61009;SDS011;46897;55.340;86.082;2023-04-03T17:14:55;76.72;;;20.67;;
61009;SDS011;46897;55.340;86.082;2023-04-03T17:17:24;66.85;;;17.85;;
61009;SDS011;46897;55.340;86.082;2023-04-03T17:19:54;69.63;;;20.33;;
61009;SDS011;46897;55.340;86.082;2023-04-03T17:22:24;64.28;;;18.48;;
61009;SDS011;46897;55.340;86.082;2023-04-03T17:24:53;68.75;;;20.25;;
61009;SDS011;46897;55.340;86.082;2023-04-03T17:27:25;48.22;;;16.60;;
61009;SDS011;46897;55.340;86.082;2023-04-03T17:30:30;41.75;;;13.35;;
61009;SDS011;46897;55.340;86.082;2023-04-03T17:32:59;33.20;;;11.30;;
61009;SDS011;46897;55.340;86.082;2023-04-03T17:35:46;25.23;;;9.68;;
61009;SDS011;46897;55.340;86.082;2023-04-03T17:38:17;26.92;;;9.20;;
61009;SDS011;46897;55.340;86.082;2023-04-03T17:40:46;31.52;;;9.60;;
61009;SDS011;46897;55.340;86.082;2023-04-03T17:43:17;26.35;;;8.20;;
61009;SDS011;46897;55.340;86.082;2023-04-03T17:48:36;17.88;;;6.03;;
61009;SDS011;46897;55.340;86.082;2023-04-03T17:51:07;17.38;;;5.68;;
61009;SDS011;46897;55.340;86.082;2023-04-03T17:53:38;21.15;;;7.10;;
61009;SDS011;46897;55.340;86.082;2023-04-03T17:56:07;18.52;;;6.38;;
61009;SDS011;46897;55.340;86.082;2023-04-03T17:58:56;14.88;;;5.80;;
61009;SDS011;46897;55.340;86.082;2023-04-03T18:04:14;17.95;;;6.00;;
61009;SDS011;46897;55.340;86.082;2023-04-03T18:06:44;11.07;;;4.75;;
61009;SDS011;46897;55.340;86.082;2023-04-03T18:12:04;13.23;;;4.18;;
61009;SDS011;46897;55.340;86.082;2023-04-03T18:14:38;12.50;;;4.60;;
61009;SDS011;46897;55.340;86.082;2023-04-03T18:17:08;13.57;;;4.45;;
61009;SDS011;46897;55.340;86.082;2023-04-03T18:19:37;13.57;;;4.65;;
61009;SDS011;46897;55.340;86.082;2023-04-03T18:22:07;14.80;;;5.50;;
61009;SDS011;46897;55.340;86.082;2023-04-03T18:25:13;13.85;;;6.22;;
61009;SDS011;46897;55.340;86.082;2023-04-03T18:30:50;15.63;;;5.68;;
61009;SDS011;46897;55.340;86.082;2023-04-03T18:33:19;12.63;;;5.15;;
61009;SDS011;46897;55.340;86.082;2023-04-03T18:36:06;11.95;;;4.47;;
61009;SDS011;46897;55.340;86.082;2023-04-03T18:38:53;15.10;;;4.70;;
61009;SDS011;46897;55.340;86.082;2023-04-03T18:41:24;20.17;;;5.45;;
61009;SDS011;46897;55.340;86.082;2023-04-03T18:44:16;18.10;;;6.53;;
61009;SDS011;46897;55.340;86.082;2023-04-03T18:46:48;19.20;;;5.35;;
61009;SDS011;46897;55.340;86.082;2023-04-03T18:49:17;14.77;;;5.15;;
61009;SDS011;46897;55.340;86.082;2023-04-03T18:54:52;20.10;;;7.50;;
61009;SDS011;46897;55.340;86.082;2023-04-03T18:57:22;15.98;;;6.63;;
61009;SDS011;46897;55.340;86.082;2023-04-03T18:59:52;17.67;;;7.03;;
61009;SDS011;46897;55.340;86.082;2023-04-03T19:02:41;16.75;;;6.20;;
61009;SDS011;46897;55.340;86.082;2023-04-03T19:05:13;20.33;;;5.45;;
61009;SDS011;46897;55.340;86.082;2023-04-03T19:07:45;18.75;;;5.40;;
61009;SDS011;46897;55.340;86.082;2023-04-03T19:10:16;13.55;;;5.03;;
61009;SDS011;46897;55.340;86.082;2023-04-03T19:12:46;16.77;;;5.80;;
61009;SDS011;46897;55.340;86.082;2023-04-03T19:15:18;14.55;;;5.60;;
61009;SDS011;46897;55.340;86.082;2023-04-03T19:17:49;15.07;;;5.03;;
61009;SDS011;46897;55.340;86.082;2023-04-03T19:20:19;12.75;;;5.03;;
61009;SDS011;46897;55.340;86.082;2023-04-03T19:22:48;17.58;;;5.10;;
61009;SDS011;46897;55.340;86.082;2023-04-03T19:25:17;15.45;;;5.35;;
61009;SDS011;46897;55.340;86.082;2023-04-03T19:27:47;18.52;;;7.03;;
61009;SDS011;46897;55.340;86.082;2023-04-03T19:30:16;15.70;;;6.13;;
61009;SDS011;46897;55.340;86.082;2023-04-03T19:32:46;11.68;;;5.95;;
61009;SDS011;46897;55.340;86.082;2023-04-03T19:35:17;16.38;;;6.25;;
61009;SDS011;46897;55.340;86.082;2023-04-03T19:37:46;16.80;;;6.60;;
61009;SDS011;46897;55.340;86.082;2023-04-03T19:40:17;16.63;;;5.75;;
61009;SDS011;46897;55.340;86.082;2023-04-03T19:42:46;17.70;;;6.15;;
61009;SDS011;46897;55.340;86.082;2023-04-03T19:45:15;17.17;;;5.63;;
61009;SDS011;46897;55.340;86.082;2023-04-03T19:50:35;14.05;;;4.70;;
61009;SDS011;46897;55.340;86.082;2023-04-03T19:53:04;14.65;;;6.20;;
61009;SDS011;46897;55.340;86.082;2023-04-03T20:01:10;12.95;;;4.97;;
61009;SDS011;46897;55.340;86.082;2023-04-03T20:03:39;11.82;;;4.60;;
61009;SDS011;46897;55.340;86.082;2023-04-03T20:06:10;16.67;;;4.93;;
61009;SDS011;46897;55.340;86.082;2023-04-03T20:11:47;23.27;;;8.57;;
61009;SDS011;46897;55.340;86.082;2023-04-03T20:14:36;13.98;;;4.65;;
61009;SDS011;46897;55.340;86.082;2023-04-03T20:17:07;9.52;;;3.80;;
61009;SDS011;46897;55.340;86.082;2023-04-03T20:19:36;10.93;;;4.45;;
61009;SDS011;46897;55.340;86.082;2023-04-03T20:24:55;13.38;;;4.80;;
61009;SDS011;46897;55.340;86.082;2023-04-03T20:27:32;10.52;;;4.80;;
61009;SDS011;46897;55.340;86.082;2023-04-03T20:30:02;9.63;;;3.50;;
61009;SDS011;46897;55.340;86.082;2023-04-03T20:32:32;13.52;;;3.80;;
61009;SDS011;46897;55.340;86.082;2023-04-03T20:35:01;10.73;;;3.58;;
61009;SDS011;46897;55.340;86.082;2023-04-03T20:37:49;9.10;;;4.43;;
61009;SDS011;46897;55.340;86.082;2023-04-03T20:40:18;13.38;;;4.40;;
61009;SDS011;46897;55.340;86.082;2023-04-03T20:42:48;14.38;;;4.40;;
61009;SDS011;46897;55.340;86.082;2023-04-03T20:45:17;8.75;;;3.95;;
61009;SDS011;46897;55.340;86.082;2023-04-03T20:47:47;11.00;;;3.88;;
61009;SDS011;46897;55.340;86.082;2023-04-03T20:50:33;10.07;;;3.90;;
61009;SDS011;46897;55.340;86.082;2023-04-03T20:53:04;8.15;;;3.55;;
61009;SDS011;46897;55.340;86.082;2023-04-03T20:55:34;13.93;;;4.00;;
61009;SDS011;46897;55.340;86.082;2023-04-03T20:58:03;9.90;;;3.67;;
61009;SDS011;46897;55.340;86.082;2023-04-03T21:00:33;9.20;;;3.85;;
61009;SDS011;46897;55.340;86.082;2023-04-03T21:03:22;11.25;;;5.57;;
61009;SDS011;46897;55.340;86.082;2023-04-03T21:20:43;6.85;;;3.08;;
61009;SDS011;46897;55.340;86.082;2023-04-03T21:23:13;10.20;;;3.55;;
61009;SDS011;46897;55.340;86.082;2023-04-03T21:25:43;6.90;;;3.30;;
61009;SDS011;46897;55.340;86.082;2023-04-03T21:28:31;7.72;;;3.35;;
61009;SDS011;46897;55.340;86.082;2023-04-03T21:31:17;10.27;;;3.30;;
61009;SDS011;46897;55.340;86.082;2023-04-03T21:33:49;12.23;;;4.28;;
61009;SDS011;46897;55.340;86.082;2023-04-03T21:36:19;9.48;;;5.13;;
61009;SDS011;46897;55.340;86.082;2023-04-03T21:38:48;9.25;;;5.65;;
61009;SDS011;46897;55.340;86.082;2023-04-03T21:44:05;8.68;;;3.95;;
61009;SDS011;46897;55.340;86.082;2023-04-03T21:46:34;10.82;;;4.57;;
61009;SDS011;46897;55.340;86.082;2023-04-03T21:49:23;8.02;;;3.42;;
61009;SDS011;46897;55.340;86.082;2023-04-03T21:51:53;8.63;;;3.50;;
61009;SDS011;46897;55.340;86.082;2023-04-03T21:59:58;7.22;;;2.63;;
61009;SDS011;46897;55.340;86.082;2023-04-03T22:03:03;6.00;;;2.72;;
61009;SDS011;46897;55.340;86.082;2023-04-03T22:05:37;7.65;;;2.60;;
61009;SDS011;46897;55.340;86.082;2023-04-03T22:11:29;10.77;;;3.55;;
61009;SDS011;46897;55.340;86.082;2023-04-03T22:13:58;9.40;;;3.88;;
61009;SDS011;46897;55.340;86.082;2023-04-03T22:16:28;9.32;;;3.80;;
61009;SDS011;46897;55.340;86.082;2023-04-03T22:21:46;6.97;;;3.60;;
61009;SDS011;46897;55.340;86.082;2023-04-03T22:24:16;9.73;;;4.05;;
61009;SDS011;46897;55.340;86.082;2023-04-03T22:26:46;9.55;;;3.78;;
61009;SDS011;46897;55.340;86.082;2023-04-03T22:35:09;8.38;;;3.35;;
61009;SDS011;46897;55.340;86.082;2023-04-03T22:37:40;13.48;;;4.43;;
61009;SDS011;46897;55.340;86.082;2023-04-03T22:40:09;14.90;;;4.70;;